sensor_id;sensor_type;location;lat;lon;timestamp;P1;durP1;ratioP1;P2;durP2;ratioP2
1651;SDS011;823;49.028;8.454;2022-09-13T00:01:21;6.80;;;3.80;;
1651;SDS011;823;49.028;8.454;2022-09-13T00:06:21;5.30;;;4.20;;
1651;SDS011;823;49.028;8.454;2022-09-13T00:11:23;5.73;;;3.93;;
1651;SDS011;823;49.028;8.454;2022-09-13T00:16:26;11.63;;;4.17;;
1651;SDS011;823;49.028;8.454;2022-09-13T00:21:27;7.30;;;3.40;;
1651;SDS011;823;49.028;8.454;2022-09-13T00:26:28;5.40;;;3.37;;
1651;SDS011;823;49.028;8.454;2022-09-13T00:31:28;6.20;;;3.50;;
1651;SDS011;823;49.028;8.454;2022-09-13T00:36:29;7.50;;;3.33;;
1651;SDS011;823;49.028;8.454;2022-09-13T00:41:29;5.07;;;2.90;;
1651;SDS011;823;49.028;8.454;2022-09-13T00:46:39;6.72;;;3.70;;
1651;SDS011;823;49.028;8.454;2022-09-13T00:51:50;4.97;;;3.20;;
1651;SDS011;823;49.028;8.454;2022-09-13T00:56:56;7.00;;;4.23;;
1651;SDS011;823;49.028;8.454;2022-09-13T01:02:02;7.83;;;4.03;;
1651;SDS011;823;49.028;8.454;2022-09-13T01:07:05;4.40;;;3.07;;
1651;SDS011;823;49.028;8.454;2022-09-13T01:12:24;5.53;;;3.57;;
1651;SDS011;823;49.028;8.454;2022-09-13T01:17:35;8.20;;;4.00;;
1651;SDS011;823;49.028;8.454;2022-09-13T01:49:31;7.90;;;4.80;;
1651;SDS011;823;49.028;8.454;2022-09-13T02:00:09;7.80;;;3.87;;
1651;SDS011;823;49.028;8.454;2022-09-13T02:05:20;9.10;;;4.13;;
1651;SDS011;823;49.028;8.454;2022-09-13T02:10:33;6.77;;;3.10;;
1651;SDS011;823;49.028;8.454;2022-09-13T02:15:43;6.13;;;3.37;;
1651;SDS011;823;49.028;8.454;2022-09-13T02:20:47;6.63;;;5.03;;
1651;SDS011;823;49.028;8.454;2022-09-13T02:25:52;7.33;;;3.70;;
1651;SDS011;823;49.028;8.454;2022-09-13T02:30:55;5.20;;;3.37;;
1651;SDS011;823;49.028;8.454;2022-09-13T02:35:59;4.93;;;3.30;;
1651;SDS011;823;49.028;8.454;2022-09-13T02:41:12;13.87;;;4.60;;
1651;SDS011;823;49.028;8.454;2022-09-13T02:51:54;4.97;;;3.90;;
1651;SDS011;823;49.028;8.454;2022-09-13T02:57:01;6.07;;;3.80;;
1651;SDS011;823;49.028;8.454;2022-09-13T03:02:06;9.17;;;4.50;;
1651;SDS011;823;49.028;8.454;2022-09-13T03:07:10;4.37;;;2.83;;
1651;SDS011;823;49.028;8.454;2022-09-13T03:43:48;5.83;;;4.20;;
1651;SDS011;823;49.028;8.454;2022-09-13T03:48:51;6.37;;;3.60;;
1651;SDS011;823;49.028;8.454;2022-09-13T03:53:56;7.13;;;3.90;;
1651;SDS011;823;49.028;8.454;2022-09-13T03:59:00;7.33;;;3.60;;
1651;SDS011;823;49.028;8.454;2022-09-13T04:04:00;6.63;;;3.80;;
1651;SDS011;823;49.028;8.454;2022-09-13T04:09:00;6.43;;;3.70;;
1651;SDS011;823;49.028;8.454;2022-09-13T04:14:01;6.63;;;3.80;;
1651;SDS011;823;49.028;8.454;2022-09-13T04:19:02;6.10;;;3.90;;
1651;SDS011;823;49.028;8.454;2022-09-13T04:24:03;6.60;;;3.90;;
1651;SDS011;823;49.028;8.454;2022-09-13T04:29:03;7.20;;;4.00;;
1651;SDS011;823;49.028;8.454;2022-09-13T04:34:04;5.67;;;3.67;;
1651;SDS011;823;49.028;8.454;2022-09-13T04:39:05;6.07;;;3.70;;
1651;SDS011;823;49.028;8.454;2022-09-13T04:44:05;6.45;;;4.38;;
1651;SDS011;823;49.028;8.454;2022-09-13T04:49:06;12.97;;;2.97;;
1651;SDS011;823;49.028;8.454;2022-09-13T04:54:08;5.03;;;3.60;;
1651;SDS011;823;49.028;8.454;2022-09-13T04:59:10;7.50;;;4.50;;
1651;SDS011;823;49.028;8.454;2022-09-13T05:04:11;8.07;;;3.83;;
1651;SDS011;823;49.028;8.454;2022-09-13T05:09:12;5.97;;;3.33;;
1651;SDS011;823;49.028;8.454;2022-09-13T05:14:14;5.17;;;3.90;;
1651;SDS011;823;49.028;8.454;2022-09-13T05:19:14;4.63;;;3.00;;
1651;SDS011;823;49.028;8.454;2022-09-13T05:24:14;6.13;;;3.23;;
1651;SDS011;823;49.028;8.454;2022-09-13T05:29:15;4.27;;;2.67;;
1651;SDS011;823;49.028;8.454;2022-09-13T05:34:15;7.77;;;2.60;;
1651;SDS011;823;49.028;8.454;2022-09-13T05:39:19;5.23;;;2.70;;
1651;SDS011;823;49.028;8.454;2022-09-13T05:44:21;9.10;;;3.00;;
1651;SDS011;823;49.028;8.454;2022-09-13T05:49:21;4.30;;;2.67;;
1651;SDS011;823;49.028;8.454;2022-09-13T05:54:22;6.70;;;3.43;;
1651;SDS011;823;49.028;8.454;2022-09-13T05:59:22;10.80;;;4.07;;
1651;SDS011;823;49.028;8.454;2022-09-13T06:04:23;4.93;;;3.20;;
1651;SDS011;823;49.028;8.454;2022-09-13T06:09:24;7.00;;;2.87;;
1651;SDS011;823;49.028;8.454;2022-09-13T06:14:24;4.50;;;2.83;;
1651;SDS011;823;49.028;8.454;2022-09-13T06:19:25;4.35;;;2.65;;
1651;SDS011;823;49.028;8.454;2022-09-13T06:24:25;7.13;;;3.03;;
1651;SDS011;823;49.028;8.454;2022-09-13T06:29:25;5.20;;;3.00;;
1651;SDS011;823;49.028;8.454;2022-09-13T06:34:25;5.75;;;2.70;;
1651;SDS011;823;49.028;8.454;2022-09-13T06:39:27;4.80;;;3.27;;
1651;SDS011;823;49.028;8.454;2022-09-13T06:44:28;8.30;;;2.47;;
1651;SDS011;823;49.028;8.454;2022-09-13T06:49:28;6.13;;;2.92;;
1651;SDS011;823;49.028;8.454;2022-09-13T06:54:30;6.67;;;3.30;;
1651;SDS011;823;49.028;8.454;2022-09-13T06:59:30;4.13;;;2.73;;
1651;SDS011;823;49.028;8.454;2022-09-13T07:04:31;4.75;;;2.50;;
1651;SDS011;823;49.028;8.454;2022-09-13T07:09:31;6.40;;;2.95;;
1651;SDS011;823;49.028;8.454;2022-09-13T07:14:33;3.23;;;2.63;;
1651;SDS011;823;49.028;8.454;2022-09-13T07:19:33;5.40;;;3.67;;
1651;SDS011;823;49.028;8.454;2022-09-13T07:24:33;4.47;;;2.40;;
1651;SDS011;823;49.028;8.454;2022-09-13T07:29:34;3.58;;;2.55;;
1651;SDS011;823;49.028;8.454;2022-09-13T07:34:34;3.13;;;2.25;;
1651;SDS011;823;49.028;8.454;2022-09-13T07:39:34;2.07;;;1.50;;
1651;SDS011;823;49.028;8.454;2022-09-13T07:44:35;3.50;;;2.20;;
1651;SDS011;823;49.028;8.454;2022-09-13T07:49:35;2.47;;;2.20;;
1651;SDS011;823;49.028;8.454;2022-09-13T07:54:35;2.60;;;2.00;;
1651;SDS011;823;49.028;8.454;2022-09-13T07:59:37;3.97;;;1.80;;
1651;SDS011;823;49.028;8.454;2022-09-13T08:04:37;2.70;;;1.73;;
1651;SDS011;823;49.028;8.454;2022-09-13T08:09:38;2.70;;;2.25;;
1651;SDS011;823;49.028;8.454;2022-09-13T08:14:38;4.50;;;2.20;;
1651;SDS011;823;49.028;8.454;2022-09-13T08:19:38;2.92;;;1.80;;
1651;SDS011;823;49.028;8.454;2022-09-13T08:24:39;3.45;;;1.40;;
1651;SDS011;823;49.028;8.454;2022-09-13T08:29:39;3.50;;;2.03;;
1651;SDS011;823;49.028;8.454;2022-09-13T08:34:39;2.95;;;1.95;;
1651;SDS011;823;49.028;8.454;2022-09-13T08:39:39;2.80;;;1.67;;
1651;SDS011;823;49.028;8.454;2022-09-13T08:44:44;5.23;;;2.33;;
1651;SDS011;823;49.028;8.454;2022-09-13T08:49:49;4.03;;;1.60;;
1651;SDS011;823;49.028;8.454;2022-09-13T08:54:56;3.13;;;2.10;;
1651;SDS011;823;49.028;8.454;2022-09-13T09:10:29;3.50;;;2.00;;
1651;SDS011;823;49.028;8.454;2022-09-13T09:15:36;1.70;;;1.60;;
1651;SDS011;823;49.028;8.454;2022-09-13T09:20:45;4.90;;;2.20;;
1651;SDS011;823;49.028;8.454;2022-09-13T09:25:49;5.90;;;2.17;;
1651;SDS011;823;49.028;8.454;2022-09-13T09:41:24;2.97;;;2.17;;
1651;SDS011;823;49.028;8.454;2022-09-13T09:46:32;2.30;;;1.97;;
1651;SDS011;823;49.028;8.454;2022-09-13T09:51:35;2.60;;;1.90;;
1651;SDS011;823;49.028;8.454;2022-09-13T09:56:36;3.27;;;1.87;;
1651;SDS011;823;49.028;8.454;2022-09-13T10:01:50;7.20;;;1.90;;
1651;SDS011;823;49.028;8.454;2022-09-13T10:07:06;3.67;;;1.57;;
1651;SDS011;823;49.028;8.454;2022-09-13T10:12:33;4.60;;;1.80;;
1651;SDS011;823;49.028;8.454;2022-09-13T10:17:36;3.57;;;2.03;;
1651;SDS011;823;49.028;8.454;2022-09-13T10:22:36;2.55;;;1.52;;
1651;SDS011;823;49.028;8.454;2022-09-13T10:27:39;2.93;;;1.77;;
1651;SDS011;823;49.028;8.454;2022-09-13T10:32:44;2.20;;;1.63;;
1651;SDS011;823;49.028;8.454;2022-09-13T10:37:55;3.40;;;2.40;;
1651;SDS011;823;49.028;8.454;2022-09-13T10:42:55;2.90;;;1.90;;
1651;SDS011;823;49.028;8.454;2022-09-13T10:47:59;3.43;;;1.47;;
1651;SDS011;823;49.028;8.454;2022-09-13T10:53:29;1.90;;;1.50;;
1651;SDS011;823;49.028;8.454;2022-09-13T10:58:32;2.10;;;1.33;;
1651;SDS011;823;49.028;8.454;2022-09-13T11:51:33;3.23;;;1.60;;
1651;SDS011;823;49.028;8.454;2022-09-13T11:56:56;4.90;;;1.90;;
1651;SDS011;823;49.028;8.454;2022-09-13T12:02:03;4.00;;;1.60;;
1651;SDS011;823;49.028;8.454;2022-09-13T12:12:45;2.37;;;1.57;;
1651;SDS011;823;49.028;8.454;2022-09-13T12:17:51;1.50;;;1.20;;
1651;SDS011;823;49.028;8.454;2022-09-13T12:22:58;2.00;;;1.10;;
1651;SDS011;823;49.028;8.454;2022-09-13T12:28:05;5.73;;;1.60;;
1651;SDS011;823;49.028;8.454;2022-09-13T12:33:14;1.57;;;1.20;;
1651;SDS011;823;49.028;8.454;2022-09-13T12:44:00;15.20;;;1.40;;
1651;SDS011;823;49.028;8.454;2022-09-13T12:49:32;1.10;;;0.90;;
1651;SDS011;823;49.028;8.454;2022-09-13T12:59:49;4.90;;;1.20;;
1651;SDS011;823;49.028;8.454;2022-09-13T13:05:25;4.47;;;1.47;;
1651;SDS011;823;49.028;8.454;2022-09-13T13:10:34;3.73;;;1.27;;
1651;SDS011;823;49.028;8.454;2022-09-13T13:21:03;3.00;;;1.63;;
1651;SDS011;823;49.028;8.454;2022-09-13T13:26:12;4.30;;;1.30;;
1651;SDS011;823;49.028;8.454;2022-09-13T13:36:57;2.00;;;1.33;;
1651;SDS011;823;49.028;8.454;2022-09-13T13:42:02;5.07;;;1.13;;
1651;SDS011;823;49.028;8.454;2022-09-13T14:02:41;1.70;;;1.20;;
1651;SDS011;823;49.028;8.454;2022-09-13T14:24:18;2.90;;;1.30;;
1651;SDS011;823;49.028;8.454;2022-09-13T14:29:23;3.23;;;2.00;;
1651;SDS011;823;49.028;8.454;2022-09-13T14:34:29;1.53;;;1.37;;
1651;SDS011;823;49.028;8.454;2022-09-13T14:39:31;2.50;;;1.30;;
1651;SDS011;823;49.028;8.454;2022-09-13T14:44:32;4.43;;;1.30;;
1651;SDS011;823;49.028;8.454;2022-09-13T14:49:38;2.38;;;1.45;;
1651;SDS011;823;49.028;8.454;2022-09-13T14:54:42;3.10;;;1.87;;
1651;SDS011;823;49.028;8.454;2022-09-13T14:59:48;3.73;;;1.60;;
1651;SDS011;823;49.028;8.454;2022-09-13T15:04:55;3.97;;;1.20;;
1651;SDS011;823;49.028;8.454;2022-09-13T15:10:05;2.77;;;1.60;;
1651;SDS011;823;49.028;8.454;2022-09-13T15:20:18;9.30;;;2.03;;
1651;SDS011;823;49.028;8.454;2022-09-13T15:25:24;1.93;;;1.47;;
1651;SDS011;823;49.028;8.454;2022-09-13T15:30:27;3.00;;;1.73;;
1651;SDS011;823;49.028;8.454;2022-09-13T15:35:33;5.10;;;1.67;;
1651;SDS011;823;49.028;8.454;2022-09-13T15:40:42;9.93;;;1.30;;
1651;SDS011;823;49.028;8.454;2022-09-13T15:45:44;1.57;;;1.47;;
1651;SDS011;823;49.028;8.454;2022-09-13T15:50:46;2.37;;;1.30;;
1651;SDS011;823;49.028;8.454;2022-09-13T15:56:05;1.77;;;1.27;;
1651;SDS011;823;49.028;8.454;2022-09-13T16:01:08;2.20;;;1.17;;
1651;SDS011;823;49.028;8.454;2022-09-13T16:06:11;2.77;;;1.27;;
1651;SDS011;823;49.028;8.454;2022-09-13T16:11:11;1.63;;;1.00;;
1651;SDS011;823;49.028;8.454;2022-09-13T16:16:12;1.50;;;1.23;;
1651;SDS011;823;49.028;8.454;2022-09-13T16:21:13;4.97;;;1.50;;
1651;SDS011;823;49.028;8.454;2022-09-13T16:26:14;4.37;;;1.03;;
1651;SDS011;823;49.028;8.454;2022-09-13T16:31:14;1.70;;;1.17;;
1651;SDS011;823;49.028;8.454;2022-09-13T16:36:15;2.00;;;1.67;;
1651;SDS011;823;49.028;8.454;2022-09-13T16:41:15;2.87;;;1.70;;
1651;SDS011;823;49.028;8.454;2022-09-13T16:46:16;2.17;;;1.35;;
1651;SDS011;823;49.028;8.454;2022-09-13T16:51:17;2.97;;;1.10;;
1651;SDS011;823;49.028;8.454;2022-09-13T16:56:17;4.28;;;1.77;;
1651;SDS011;823;49.028;8.454;2022-09-13T17:01:22;1.93;;;1.63;;
1651;SDS011;823;49.028;8.454;2022-09-13T17:06:24;2.20;;;1.63;;
1651;SDS011;823;49.028;8.454;2022-09-13T17:11:26;3.90;;;1.57;;
1651;SDS011;823;49.028;8.454;2022-09-13T17:16:30;2.70;;;1.10;;
1651;SDS011;823;49.028;8.454;2022-09-13T17:21:33;2.03;;;1.63;;
1651;SDS011;823;49.028;8.454;2022-09-13T17:26:33;6.33;;;2.50;;
1651;SDS011;823;49.028;8.454;2022-09-13T17:31:33;4.20;;;1.80;;
1651;SDS011;823;49.028;8.454;2022-09-13T17:36:34;2.47;;;1.60;;
1651;SDS011;823;49.028;8.454;2022-09-13T17:41:35;11.83;;;1.80;;
1651;SDS011;823;49.028;8.454;2022-09-13T17:46:35;2.20;;;1.57;;
1651;SDS011;823;49.028;8.454;2022-09-13T17:51:36;3.58;;;1.83;;
1651;SDS011;823;49.028;8.454;2022-09-13T17:56:40;3.47;;;2.10;;
1651;SDS011;823;49.028;8.454;2022-09-13T18:01:46;2.90;;;1.90;;
1651;SDS011;823;49.028;8.454;2022-09-13T18:06:49;4.23;;;2.27;;
1651;SDS011;823;49.028;8.454;2022-09-13T18:11:50;6.53;;;2.07;;
1651;SDS011;823;49.028;8.454;2022-09-13T18:16:50;2.72;;;2.10;;
1651;SDS011;823;49.028;8.454;2022-09-13T18:21:54;4.63;;;2.40;;
1651;SDS011;823;49.028;8.454;2022-09-13T18:26:54;4.88;;;2.30;;
1651;SDS011;823;49.028;8.454;2022-09-13T18:31:55;10.43;;;2.53;;
1651;SDS011;823;49.028;8.454;2022-09-13T18:36:55;5.67;;;2.10;;
1651;SDS011;823;49.028;8.454;2022-09-13T18:41:55;4.20;;;2.70;;
1651;SDS011;823;49.028;8.454;2022-09-13T18:46:56;7.33;;;2.60;;
1651;SDS011;823;49.028;8.454;2022-09-13T18:51:57;4.63;;;2.20;;
1651;SDS011;823;49.028;8.454;2022-09-13T18:56:57;5.50;;;2.25;;
1651;SDS011;823;49.028;8.454;2022-09-13T19:01:58;3.70;;;2.53;;
1651;SDS011;823;49.028;8.454;2022-09-13T19:06:59;3.25;;;2.10;;
1651;SDS011;823;49.028;8.454;2022-09-13T19:12:01;5.77;;;1.90;;
1651;SDS011;823;49.028;8.454;2022-09-13T19:17:02;4.40;;;2.50;;
1651;SDS011;823;49.028;8.454;2022-09-13T19:22:03;5.13;;;2.50;;
1651;SDS011;823;49.028;8.454;2022-09-13T19:27:03;5.47;;;2.90;;
1651;SDS011;823;49.028;8.454;2022-09-13T19:32:04;4.43;;;2.88;;
1651;SDS011;823;49.028;8.454;2022-09-13T19:37:04;4.80;;;2.70;;
1651;SDS011;823;49.028;8.454;2022-09-13T19:42:05;5.50;;;3.30;;
1651;SDS011;823;49.028;8.454;2022-09-13T19:47:05;7.27;;;3.40;;
1651;SDS011;823;49.028;8.454;2022-09-13T19:52:06;3.70;;;3.00;;
1651;SDS011;823;49.028;8.454;2022-09-13T19:57:06;12.30;;;4.77;;
1651;SDS011;823;49.028;8.454;2022-09-13T20:02:09;5.70;;;3.20;;
1651;SDS011;823;49.028;8.454;2022-09-13T20:07:09;10.63;;;2.90;;
1651;SDS011;823;49.028;8.454;2022-09-13T20:12:12;9.57;;;2.77;;
1651;SDS011;823;49.028;8.454;2022-09-13T20:17:13;3.27;;;2.43;;
1651;SDS011;823;49.028;8.454;2022-09-13T20:22:13;12.23;;;2.70;;
1651;SDS011;823;49.028;8.454;2022-09-13T20:27:14;4.80;;;2.60;;
1651;SDS011;823;49.028;8.454;2022-09-13T20:32:15;7.90;;;3.23;;
1651;SDS011;823;49.028;8.454;2022-09-13T20:37:15;7.65;;;2.90;;
1651;SDS011;823;49.028;8.454;2022-09-13T20:42:16;6.70;;;2.87;;
1651;SDS011;823;49.028;8.454;2022-09-13T20:47:16;6.30;;;2.70;;
1651;SDS011;823;49.028;8.454;2022-09-13T20:52:17;4.40;;;3.03;;
1651;SDS011;823;49.028;8.454;2022-09-13T20:57:17;9.80;;;3.53;;
1651;SDS011;823;49.028;8.454;2022-09-13T21:02:17;5.40;;;3.00;;
1651;SDS011;823;49.028;8.454;2022-09-13T21:07:18;3.50;;;2.77;;
1651;SDS011;823;49.028;8.454;2022-09-13T21:12:37;8.77;;;3.60;;
1651;SDS011;823;49.028;8.454;2022-09-13T21:17:37;7.63;;;2.80;;
1651;SDS011;823;49.028;8.454;2022-09-13T21:22:38;7.43;;;2.70;;
1651;SDS011;823;49.028;8.454;2022-09-13T21:27:38;4.30;;;2.80;;
1651;SDS011;823;49.028;8.454;2022-09-13T21:32:38;5.87;;;3.10;;
1651;SDS011;823;49.028;8.454;2022-09-13T21:37:39;8.17;;;4.13;;
1651;SDS011;823;49.028;8.454;2022-09-13T21:42:40;4.88;;;2.95;;
1651;SDS011;823;49.028;8.454;2022-09-13T21:47:40;5.40;;;3.47;;
1651;SDS011;823;49.028;8.454;2022-09-13T21:52:40;4.95;;;3.10;;
1651;SDS011;823;49.028;8.454;2022-09-13T21:57:41;6.67;;;3.83;;
1651;SDS011;823;49.028;8.454;2022-09-13T22:02:42;12.37;;;3.50;;
1651;SDS011;823;49.028;8.454;2022-09-13T22:07:42;5.07;;;3.57;;
1651;SDS011;823;49.028;8.454;2022-09-13T22:12:43;6.78;;;4.20;;
1651;SDS011;823;49.028;8.454;2022-09-13T22:17:43;5.50;;;3.27;;
1651;SDS011;823;49.028;8.454;2022-09-13T22:22:43;4.83;;;3.33;;
1651;SDS011;823;49.028;8.454;2022-09-13T22:27:44;13.57;;;3.30;;
1651;SDS011;823;49.028;8.454;2022-09-13T22:32:44;6.70;;;3.23;;
1651;SDS011;823;49.028;8.454;2022-09-13T22:37:44;5.53;;;3.75;;
1651;SDS011;823;49.028;8.454;2022-09-13T22:42:46;9.17;;;4.07;;
1651;SDS011;823;49.028;8.454;2022-09-13T22:47:46;8.13;;;3.43;;
1651;SDS011;823;49.028;8.454;2022-09-13T22:52:47;5.63;;;3.35;;
1651;SDS011;823;49.028;8.454;2022-09-13T22:57:50;8.07;;;3.43;;
1651;SDS011;823;49.028;8.454;2022-09-13T23:02:51;6.93;;;3.77;;
1651;SDS011;823;49.028;8.454;2022-09-13T23:07:52;4.65;;;3.55;;
1651;SDS011;823;49.028;8.454;2022-09-13T23:12:52;3.13;;;2.57;;
1651;SDS011;823;49.028;8.454;2022-09-13T23:17:53;5.63;;;3.40;;
1651;SDS011;823;49.028;8.454;2022-09-13T23:22:53;4.47;;;3.33;;
1651;SDS011;823;49.028;8.454;2022-09-13T23:27:54;5.13;;;3.23;;
1651;SDS011;823;49.028;8.454;2022-09-13T23:32:54;8.20;;;3.70;;
1651;SDS011;823;49.028;8.454;2022-09-13T23:37:54;5.88;;;3.60;;
1651;SDS011;823;49.028;8.454;2022-09-13T23:42:54;6.40;;;3.70;;
1651;SDS011;823;49.028;8.454;2022-09-13T23:47:55;6.10;;;4.37;;
1651;SDS011;823;49.028;8.454;2022-09-13T23:52:55;9.65;;;4.82;;
1651;SDS011;823;49.028;8.454;2022-09-13T23:57:56;9.83;;;4.67;;
